^^
Station Historical Data
Daily Summary for May 18, 2017 Units:  Both    English   Metric
« Previous Day
Next Day »
Daily Weekly Monthly Yearly Custom
  High: Low: Average:
Temperature: 74.8 °F /  23.8 °C 44.2 °F /  6.8 °C 58.9 °F /  14.9 °C
Dew Point: 38.5 °F /  3.6 °C 32.4 °F /  0.2 °C 35.1 °F /  1.7 °C
Humidity: 65% 23% 44%
Wind Speed: 10.1mph /  16.3km/h - 0.7mph /  1.1km/h
Wind Gust: 11.0mph /  17.7km/h - -
Wind- - SE
Pressure: 30.42 in /  1030 hPa 30.31 in /  1026.3 hPa -
Precipitation: 0.00 in /  0 mm    
Historical Graphs
 
 
Tabular Data for May 18, 2017
Time Temperature Dew Point Pressure Wind Wind Speed Wind Gust Humidity Rainfall Rate (Hourly) solar Conditions
00:00 52.0 °F /  11.1 °C 32.9 °F /  0.5 °C 30.35in /  1027.7hPa SE 0.9mph /  1.4km/h 2.0mph /  3.2km/h 48% 0.00in /  0mm 0.0 W/m2
00:06 51.8 °F /  11 °C 32.7 °F /  0.4 °C 30.35in /  1027.7hPa SE 2.0mph /  3.2km/h 5.0mph /  8km/h 48% 0.00in /  0mm 0.0 W/m2
00:12 52.0 °F /  11.1 °C 32.4 °F /  0.2 °C 30.35in /  1027.7hPa Calm     47% 0.00in /  0mm 0.0 W/m2
00:18 52.2 °F /  11.2 °C 33.1 °F /  0.6 °C 30.35in /  1027.7hPa Calm     48% 0.00in /  0mm 0.0 W/m2
00:24 51.6 °F /  10.9 °C 33.1 °F /  0.6 °C 30.35in /  1027.7hPa Calm     49% 0.00in /  0mm 0.0 W/m2
00:30 51.1 °F /  10.6 °C 33.1 °F /  0.6 °C 30.35in /  1027.7hPa Calm   1.0mph /  1.6km/h 50% 0.00in /  0mm 0.0 W/m2
00:36 50.7 °F /  10.4 °C 32.7 °F /  0.4 °C 30.35in /  1027.7hPa Calm   1.0mph /  1.6km/h 50% 0.00in /  0mm 0.0 W/m2
00:42 50.2 °F /  10.1 °C 33.3 °F /  0.7 °C 30.35in /  1027.7hPa Calm     52% 0.00in /  0mm 0.0 W/m2
00:48 49.6 °F /  9.8 °C 32.7 °F /  0.4 °C 30.34in /  1027.3hPa Calm   1.0mph /  1.6km/h 52% 0.00in /  0mm 0.0 W/m2
00:54 49.5 °F /  9.7 °C 33.4 °F /  0.8 °C 30.35in /  1027.7hPa Calm     54% 0.00in /  0mm 0.0 W/m2
01:00 48.9 °F /  9.4 °C 32.5 °F /  0.3 °C 30.34in /  1027.3hPa Calm     53% 0.00in /  0mm 0.0 W/m2
01:06 48.6 °F /  9.2 °C 32.7 °F /  0.4 °C 30.34in /  1027.3hPa Calm     54% 0.00in /  0mm 0.0 W/m2
01:12 48.4 °F /  9.1 °C 32.5 °F /  0.3 °C 30.35in /  1027.7hPa Calm   2.0mph /  3.2km/h 54% 0.00in /  0mm 0.0 W/m2
01:18 48.2 °F /  9 °C 32.4 °F /  0.2 °C 30.35in /  1027.7hPa East 0.9mph /  1.4km/h 2.0mph /  3.2km/h 54% 0.00in /  0mm 0.0 W/m2
01:24 48.2 °F /  9 °C 32.7 °F /  0.4 °C 30.35in /  1027.7hPa Calm   1.0mph /  1.6km/h 55% 0.00in /  0mm 0.0 W/m2
01:30 48.0 °F /  8.9 °C 32.5 °F /  0.3 °C 30.35in /  1027.7hPa East 0.9mph /  1.4km/h 2.0mph /  3.2km/h 55% 0.00in /  0mm 0.0 W/m2
01:37 48.2 °F /  9 °C 32.4 °F /  0.2 °C 30.35in /  1027.7hPa Calm   3.0mph /  4.8km/h 54% 0.00in /  0mm 0.0 W/m2
01:43 48.4 °F /  9.1 °C 32.9 °F /  0.5 °C 30.35in /  1027.7hPa East 2.0mph /  3.2km/h 2.0mph /  3.2km/h 55% 0.00in /  0mm 0.0 W/m2
01:49 48.4 °F /  9.1 °C 32.9 °F /  0.5 °C 30.35in /  1027.7hPa Calm   1.0mph /  1.6km/h 55% 0.00in /  0mm 0.0 W/m2
01:55 48.4 °F /  9.1 °C 33.4 °F /  0.8 °C 30.34in /  1027.3hPa Calm   2.0mph /  3.2km/h 56% 0.00in /  0mm 0.0 W/m2
02:01 48.2 °F /  9 °C 32.7 °F /  0.4 °C 30.34in /  1027.3hPa Calm   3.0mph /  4.8km/h 55% 0.00in /  0mm 0.0 W/m2
02:07 48.0 °F /  8.9 °C 33.1 °F /  0.6 °C 30.34in /  1027.3hPa Calm   1.0mph /  1.6km/h 56% 0.00in /  0mm 0.0 W/m2
02:13 47.8 °F /  8.8 °C 32.9 °F /  0.5 °C 30.34in /  1027.3hPa Calm     56% 0.00in /  0mm 0.0 W/m2
02:19 47.5 °F /  8.6 °C 32.5 °F /  0.3 °C 30.34in /  1027.3hPa Calm   1.0mph /  1.6km/h 56% 0.00in /  0mm 0.0 W/m2
02:25 47.3 °F /  8.5 °C 32.9 °F /  0.5 °C 30.34in /  1027.3hPa Calm     57% 0.00in /  0mm 0.0 W/m2
02:31 46.9 °F /  8.3 °C 32.5 °F /  0.3 °C 30.34in /  1027.3hPa SE 2.0mph /  3.2km/h 3.0mph /  4.8km/h 57% 0.00in /  0mm 0.0 W/m2
02:37 46.9 °F /  8.3 °C 32.5 °F /  0.3 °C 30.34in /  1027.3hPa Calm     57% 0.00in /  0mm 0.0 W/m2
02:43 46.9 °F /  8.3 °C 32.9 °F /  0.5 °C 30.34in /  1027.3hPa Calm     58% 0.00in /  0mm 0.0 W/m2
02:49 46.8 °F /  8.2 °C 32.7 °F /  0.4 °C 30.34in /  1027.3hPa Calm     58% 0.00in /  0mm 0.0 W/m2
02:55 46.4 °F /  8 °C 32.9 °F /  0.5 °C 30.34in /  1027.3hPa Calm     59% 0.00in /  0mm 0.0 W/m2
03:01 46.2 °F /  7.9 °C 32.7 °F /  0.4 °C 30.35in /  1027.7hPa Calm     59% 0.00in /  0mm 0.0 W/m2
03:07 45.9 °F /  7.7 °C 32.7 °F /  0.4 °C 30.35in /  1027.7hPa Calm     60% 0.00in /  0mm 0.0 W/m2
03:13 45.7 °F /  7.6 °C 33.1 °F /  0.6 °C 30.35in /  1027.7hPa Calm     61% 0.00in /  0mm 0.0 W/m2
03:19 45.3 °F /  7.4 °C 32.7 °F /  0.4 °C 30.35in /  1027.7hPa Calm     61% 0.00in /  0mm 0.0 W/m2
03:25 45.3 °F /  7.4 °C 33.1 °F /  0.6 °C 30.35in /  1027.7hPa Calm     62% 0.00in /  0mm 0.0 W/m2
03:32 45.1 °F /  7.3 °C 32.9 °F /  0.5 °C 30.35in /  1027.7hPa Calm     62% 0.00in /  0mm 0.0 W/m2
03:38 45.0 °F /  7.2 °C 33.1 °F /  0.6 °C 30.35in /  1027.7hPa Calm   1.0mph /  1.6km/h 63% 0.00in /  0mm 0.0 W/m2
03:44 45.0 °F /  7.2 °C 33.1 °F /  0.6 °C 30.35in /  1027.7hPa Calm   1.0mph /  1.6km/h 63% 0.00in /  0mm 0.0 W/m2
03:50 45.1 °F /  7.3 °C 32.9 °F /  0.5 °C 30.35in /  1027.7hPa Calm     62% 0.00in /  0mm 0.0 W/m2
03:56 45.1 °F /  7.3 °C 33.3 °F /  0.7 °C 30.36in /  1028hPa Calm     63% 0.00in /  0mm 0.0 W/m2
04:02 45.0 °F /  7.2 °C 33.1 °F /  0.6 °C 30.36in /  1028hPa Calm     63% 0.00in /  0mm 0.0 W/m2
04:08 44.8 °F /  7.1 °C 33.3 °F /  0.7 °C 30.36in /  1028hPa Calm     64% 0.00in /  0mm 0.0 W/m2
04:14 44.4 °F /  6.9 °C 33.1 °F /  0.6 °C 30.36in /  1028hPa Calm     64% 0.00in /  0mm 0.0 W/m2
04:20 44.4 °F /  6.9 °C 33.1 °F /  0.6 °C 30.36in /  1028hPa Calm     64% 0.00in /  0mm 0.0 W/m2
04:26 44.2 °F /  6.8 °C 32.9 °F /  0.5 °C 30.36in /  1028hPa Calm   1.0mph /  1.6km/h 64% 0.00in /  0mm 0.0 W/m2
04:32 44.2 °F /  6.8 °C 33.3 °F /  0.7 °C 30.36in /  1028hPa SE 0.9mph /  1.4km/h 1.0mph /  1.6km/h 65% 0.00in /  0mm 0.0 W/m2
04:38 44.2 °F /  6.8 °C 33.3 °F /  0.7 °C 30.36in /  1028hPa ESE 0.9mph /  1.4km/h 3.0mph /  4.8km/h 65% 0.00in /  0mm 0.0 W/m2
04:44 44.4 °F /  6.9 °C 33.4 °F /  0.8 °C 30.36in /  1028hPa ESE 2.0mph /  3.2km/h 3.0mph /  4.8km/h 65% 0.00in /  0mm 0.0 W/m2
04:51 44.8 °F /  7.1 °C 33.3 °F /  0.7 °C 30.36in /  1028hPa Calm   1.0mph /  1.6km/h 64% 0.00in /  0mm 0.0 W/m2
04:56 45.0 °F /  7.2 °C 33.4 °F /  0.8 °C 30.37in /  1028.3hPa Calm   2.0mph /  3.2km/h 64% 0.00in /  0mm 0.0 W/m2
05:03 45.1 °F /  7.3 °C 33.3 °F /  0.7 °C 30.36in /  1028hPa ENE 0.9mph /  1.4km/h 2.0mph /  3.2km/h 63% 0.00in /  0mm 0.0 W/m2
05:09 45.5 °F /  7.5 °C 33.6 °F /  0.9 °C 30.37in /  1028.3hPa Calm   2.0mph /  3.2km/h 63% 0.00in /  0mm 0.0 W/m2
05:15 45.7 °F /  7.6 °C 33.8 °F /  1 °C 30.37in /  1028.3hPa Calm     63% 0.00in /  0mm 0.0 W/m2
05:21 45.7 °F /  7.6 °C 33.4 °F /  0.8 °C 30.37in /  1028.3hPa Calm   1.0mph /  1.6km/h 62% 0.00in /  0mm 0.0 W/m2
05:27 45.9 °F /  7.7 °C 33.6 °F /  0.9 °C 30.37in /  1028.3hPa Calm   1.0mph /  1.6km/h 62% 0.00in /  0mm 0.0 W/m2
05:34 45.9 °F /  7.7 °C 34.0 °F /  1.1 °C 30.37in /  1028.3hPa Calm   1.0mph /  1.6km/h 63% 0.00in /  0mm 0.0 W/m2
05:41 45.9 °F /  7.7 °C 33.6 °F /  0.9 °C 30.37in /  1028.3hPa Calm   1.0mph /  1.6km/h 62% 0.00in /  0mm 0.0 W/m2
05:46 45.7 °F /  7.6 °C 33.4 °F /  0.8 °C 30.37in /  1028.3hPa Calm   1.0mph /  1.6km/h 62% 0.00in /  0mm 0.0 W/m2
05:52 45.7 °F /  7.6 °C 33.8 °F /  1 °C 30.37in /  1028.3hPa Calm   1.0mph /  1.6km/h 63% 0.00in /  0mm 0.0 W/m2
05:58 45.7 °F /  7.6 °C 33.8 °F /  1 °C 30.38in /  1028.7hPa NE 0.9mph /  1.4km/h 1.0mph /  1.6km/h 63% 0.00in /  0mm 0.0 W/m2
06:04 45.5 °F /  7.5 °C 33.6 °F /  0.9 °C 30.38in /  1028.7hPa Calm   1.0mph /  1.6km/h 63% 0.00in /  0mm 0.0 W/m2
06:10 45.7 °F /  7.6 °C 33.8 °F /  1 °C 30.38in /  1028.7hPa Calm   2.0mph /  3.2km/h 63% 0.00in /  0mm 0.0 W/m2
06:16 45.7 °F /  7.6 °C 33.8 °F /  1 °C 30.38in /  1028.7hPa Calm   1.0mph /  1.6km/h 63% 0.00in /  0mm 0.0 W/m2
06:22 45.7 °F /  7.6 °C 33.8 °F /  1 °C 30.38in /  1028.7hPa Calm     63% 0.00in /  0mm 5.0 W/m2
06:28 45.5 °F /  7.5 °C 34.0 °F /  1.1 °C 30.38in /  1028.7hPa Calm   1.0mph /  1.6km/h 64% 0.00in /  0mm 7.0 W/m2
06:34 45.3 °F /  7.4 °C 33.4 °F /  0.8 °C 30.38in /  1028.7hPa Calm   4.0mph /  6.4km/h 63% 0.00in /  0mm 9.0 W/m2
06:43 45.3 °F /  7.4 °C 33.4 °F /  0.8 °C 30.39in /  1029hPa ENE 0.9mph /  1.4km/h 4.0mph /  6.4km/h 63% 0.00in /  0mm 11.0 W/m2
06:49 45.5 °F /  7.5 °C 34.0 °F /  1.1 °C 30.39in /  1029hPa East 0.9mph /  1.4km/h 3.0mph /  4.8km/h 64% 0.00in /  0mm 12.0 W/m2
06:55 45.7 °F /  7.6 °C 34.2 °F /  1.2 °C 30.39in /  1029hPa NNE 2.9mph /  4.7km/h 3.0mph /  4.8km/h 64% 0.00in /  0mm 14.0 W/m2
07:01 45.9 °F /  7.7 °C 34.0 °F /  1.1 °C 30.39in /  1029hPa ENE 2.0mph /  3.2km/h 5.0mph /  8km/h 63% 0.00in /  0mm 14.0 W/m2
07:07 46.6 °F /  8.1 °C 34.3 °F /  1.3 °C 30.39in /  1029hPa Calm   3.0mph /  4.8km/h 62% 0.00in /  0mm 16.0 W/m2
07:13 47.1 °F /  8.4 °C 34.7 °F /  1.5 °C 30.40in /  1029.3hPa East 4.0mph /  6.4km/h 4.0mph /  6.4km/h 62% 0.00in /  0mm 18.0 W/m2
07:19 47.7 °F /  8.7 °C 34.9 °F /  1.6 °C 30.40in /  1029.3hPa Calm   6.0mph /  9.7km/h 61% 0.00in /  0mm 18.0 W/m2
07:25 48.2 °F /  9 °C 34.9 °F /  1.6 °C 30.40in /  1029.3hPa East 0.9mph /  1.4km/h 3.0mph /  4.8km/h 60% 0.00in /  0mm 19.0 W/m2
07:31 48.9 °F /  9.4 °C 35.2 °F /  1.8 °C 30.40in /  1029.3hPa ESE 0.9mph /  1.4km/h 5.0mph /  8km/h 59% 0.00in /  0mm 21.0 W/m2
07:38 49.8 °F /  9.9 °C 35.2 °F /  1.8 °C 30.40in /  1029.3hPa Calm   3.0mph /  4.8km/h 57% 0.00in /  0mm 21.0 W/m2
07:44 50.5 °F /  10.3 °C 36.0 °F /  2.2 °C 30.40in /  1029.3hPa ENE 0.9mph /  1.4km/h 2.0mph /  3.2km/h 57% 0.00in /  0mm 23.0 W/m2
07:50 51.4 °F /  10.8 °C 36.3 °F /  2.4 °C 30.40in /  1029.3hPa ENE 2.0mph /  3.2km/h 3.0mph /  4.8km/h 56% 0.00in /  0mm 23.0 W/m2
07:56 52.3 °F /  11.3 °C 36.1 °F /  2.3 °C 30.41in /  1029.7hPa Calm   2.0mph /  3.2km/h 54% 0.00in /  0mm 25.0 W/m2
08:02 53.8 °F /  12.1 °C 37.0 °F /  2.8 °C 30.41in /  1029.7hPa ENE 0.9mph /  1.4km/h 2.0mph /  3.2km/h 53% 0.00in /  0mm 25.0 W/m2
08:08 54.9 °F /  12.7 °C 37.0 °F /  2.8 °C 30.41in /  1029.7hPa Calm   2.0mph /  3.2km/h 51% 0.00in /  0mm 362.0 W/m2
08:14 56.7 °F /  13.7 °C 37.2 °F /  2.9 °C 30.41in /  1029.7hPa Calm   1.0mph /  1.6km/h 48% 0.00in /  0mm 385.0 W/m2
08:20 58.5 °F /  14.7 °C 36.7 °F /  2.6 °C 30.41in /  1029.7hPa NE 0.9mph /  1.4km/h 1.0mph /  1.6km/h 44% 0.00in /  0mm 404.0 W/m2
08:22 59.4 °F /  15.2 °C 36.9 °F /  2.7 °C 30.41in /  1029.7hPa NNW 0.9mph /  1.4km/h 2.0mph /  3.2km/h 43% 0.00in /  0mm 408.0 W/m2
08:28 60.6 °F /  15.9 °C 36.1 °F /  2.3 °C 30.41in /  1029.7hPa Calm     40% 0.00in /  0mm 431.0 W/m2
08:34 62.1 °F /  16.7 °C 37.4 °F /  3 °C 30.41in /  1029.7hPa Calm     40% 0.00in /  0mm 450.0 W/m2
08:40 64.0 °F /  17.8 °C 37.2 °F /  2.9 °C 30.41in /  1029.7hPa Calm     37% 0.00in /  0mm 469.0 W/m2
08:47 64.9 °F /  18.3 °C 37.4 °F /  3 °C 30.41in /  1029.7hPa Calm     36% 0.00in /  0mm 487.0 W/m2
08:53 65.7 °F /  18.7 °C 37.9 °F /  3.3 °C 30.41in /  1029.7hPa Calm   2.0mph /  3.2km/h 36% 0.00in /  0mm 506.0 W/m2
08:59 66.4 °F /  19.1 °C 37.9 °F /  3.3 °C 30.41in /  1029.7hPa Calm   2.0mph /  3.2km/h 35% 0.00in /  0mm 522.0 W/m2
09:05 66.9 °F /  19.4 °C 37.6 °F /  3.1 °C 30.42in /  1030hPa Calm   1.0mph /  1.6km/h 34% 0.00in /  0mm 540.0 W/m2
09:11 67.5 °F /  19.7 °C 37.4 °F /  3 °C 30.42in /  1030hPa West 0.9mph /  1.4km/h 5.0mph /  8km/h 33% 0.00in /  0mm 555.0 W/m2
09:17 66.9 °F /  19.4 °C 36.9 °F /  2.7 °C 30.42in /  1030hPa Calm   3.0mph /  4.8km/h 33% 0.00in /  0mm 568.0 W/m2
09:23 66.9 °F /  19.4 °C 37.6 °F /  3.1 °C 30.41in /  1029.7hPa Calm   3.0mph /  4.8km/h 34% 0.00in /  0mm 584.0 W/m2
09:29 67.1 °F /  19.5 °C 38.5 °F /  3.6 °C 30.41in /  1029.7hPa Calm   1.0mph /  1.6km/h 35% 0.00in /  0mm 594.0 W/m2
09:35 67.6 °F /  19.8 °C 37.6 °F /  3.1 °C 30.41in /  1029.7hPa Calm   3.0mph /  4.8km/h 33% 0.00in /  0mm 603.0 W/m2
09:42 68.5 °F /  20.3 °C 37.6 °F /  3.1 °C 30.41in /  1029.7hPa Calm   2.0mph /  3.2km/h 32% 0.00in /  0mm 610.0 W/m2
09:48 68.9 °F /  20.5 °C 37.8 °F /  3.2 °C 30.40in /  1029.3hPa Calm   2.0mph /  3.2km/h 32% 0.00in /  0mm 624.0 W/m2
09:54 69.3 °F /  20.7 °C 38.1 °F /  3.4 °C 30.40in /  1029.3hPa Calm   3.0mph /  4.8km/h 32% 0.00in /  0mm 635.0 W/m2
10:00 69.6 °F /  20.9 °C 38.5 °F /  3.6 °C 30.40in /  1029.3hPa NNE 2.0mph /  3.2km/h 2.0mph /  3.2km/h 32% 0.00in /  0mm 645.0 W/m2
10:06 69.6 °F /  20.9 °C 36.9 °F /  2.7 °C 30.40in /  1029.3hPa Calm   3.0mph /  4.8km/h 30% 0.00in /  0mm 652.0 W/m2
10:12 70.0 °F /  21.1 °C 37.9 °F /  3.3 °C 30.40in /  1029.3hPa Calm   5.0mph /  8km/h 31% 0.00in /  0mm 670.0 W/m2
10:18 70.5 °F /  21.4 °C 36.7 °F /  2.6 °C 30.40in /  1029.3hPa WNW 2.0mph /  3.2km/h 5.0mph /  8km/h 29% 0.00in /  0mm 689.0 W/m2
10:24 71.1 °F /  21.7 °C 36.3 °F /  2.4 °C 30.39in /  1029hPa NE 2.0mph /  3.2km/h 3.0mph /  4.8km/h 28% 0.00in /  0mm 698.0 W/m2
10:30 71.6 °F /  22 °C 35.8 °F /  2.1 °C 30.39in /  1029hPa Calm   2.0mph /  3.2km/h 27% 0.00in /  0mm 705.0 W/m2
10:37 71.8 °F /  22.1 °C 35.1 °F /  1.7 °C 30.39in /  1029hPa Calm   7.0mph /  11.3km/h 26% 0.00in /  0mm 717.0 W/m2
10:43 72.0 °F /  22.2 °C 34.2 °F /  1.2 °C 30.39in /  1029hPa NE 2.0mph /  3.2km/h 11.0mph /  17.7km/h 25% 0.00in /  0mm 726.0 W/m2
10:49 72.1 °F /  22.3 °C 35.4 °F /  1.9 °C 30.39in /  1029hPa NNE 2.0mph /  3.2km/h 2.0mph /  3.2km/h 26% 0.00in /  0mm 733.0 W/m2
10:55 72.7 °F /  22.6 °C 34.9 °F /  1.6 °C 30.38in /  1028.7hPa NNW 2.0mph /  3.2km/h 10.0mph /  16.1km/h 25% 0.00in /  0mm 735.0 W/m2
11:01 72.7 °F /  22.6 °C 34.9 °F /  1.6 °C 30.38in /  1028.7hPa NE 4.0mph /  6.4km/h 4.0mph /  6.4km/h 25% 0.00in /  0mm 742.0 W/m2
11:07 72.7 °F /  22.6 °C 34.9 °F /  1.6 °C 30.38in /  1028.7hPa South 2.0mph /  3.2km/h 5.0mph /  8km/h 25% 0.00in /  0mm 745.0 W/m2
11:13 72.9 °F /  22.7 °C 34.0 °F /  1.1 °C 30.38in /  1028.7hPa ENE 4.9mph /  7.9km/h 8.0mph /  12.9km/h 24% 0.00in /  0mm 749.0 W/m2
11:20 73.0 °F /  22.8 °C 34.2 °F /  1.2 °C 30.38in /  1028.7hPa Calm     24% 0.00in /  0mm 751.0 W/m2
11:26 72.9 °F /  22.7 °C 35.1 °F /  1.7 °C 30.37in /  1028.3hPa WSW 0.9mph /  1.4km/h 3.0mph /  4.8km/h 25% 0.00in /  0mm 756.0 W/m2
11:32 73.0 °F /  22.8 °C 34.2 °F /  1.2 °C 30.37in /  1028.3hPa NNW 2.0mph /  3.2km/h 10.0mph /  16.1km/h 24% 0.00in /  0mm 756.0 W/m2
11:38 72.9 °F /  22.7 °C 34.0 °F /  1.1 °C 30.37in /  1028.3hPa NNW 2.0mph /  3.2km/h 4.0mph /  6.4km/h 24% 0.00in /  0mm 756.0 W/m2
11:44 73.2 °F /  22.9 °C 35.2 °F /  1.8 °C 30.37in /  1028.3hPa ESE 4.0mph /  6.4km/h 4.0mph /  6.4km/h 25% 0.00in /  0mm 758.0 W/m2
11:52 73.2 °F /  22.9 °C 34.3 °F /  1.3 °C 30.36in /  1028hPa NNE 0.9mph /  1.4km/h 3.0mph /  4.8km/h 24% 0.00in /  0mm 754.0 W/m2
11:58 73.6 °F /  23.1 °C 34.5 °F /  1.4 °C 30.36in /  1028hPa Calm   5.0mph /  8km/h 24% 0.00in /  0mm 752.0 W/m2
12:05 73.8 °F /  23.2 °C 35.8 °F /  2.1 °C 30.35in /  1027.7hPa NNW 2.0mph /  3.2km/h 6.0mph /  9.7km/h 25% 0.00in /  0mm 752.0 W/m2
12:11 73.8 °F /  23.2 °C 34.7 °F /  1.5 °C 30.35in /  1027.7hPa NNW 6.0mph /  9.7km/h 9.0mph /  14.5km/h 24% 0.00in /  0mm 747.0 W/m2
12:17 73.8 °F /  23.2 °C 34.7 °F /  1.5 °C 30.35in /  1027.7hPa NNW 4.9mph /  7.9km/h 8.0mph /  12.9km/h 24% 0.00in /  0mm 745.0 W/m2
12:23 73.8 °F /  23.2 °C 34.7 °F /  1.5 °C 30.35in /  1027.7hPa NE 2.0mph /  3.2km/h 8.0mph /  12.9km/h 24% 0.00in /  0mm 740.0 W/m2
12:29 73.9 °F /  23.3 °C 34.9 °F /  1.6 °C 30.34in /  1027.3hPa NNE 2.0mph /  3.2km/h 4.0mph /  6.4km/h 24% 0.00in /  0mm 735.0 W/m2
12:35 74.5 °F /  23.6 °C 34.3 °F /  1.3 °C 30.34in /  1027.3hPa ENE 4.0mph /  6.4km/h 5.0mph /  8km/h 23% 0.00in /  0mm 729.0 W/m2
12:41 74.7 °F /  23.7 °C 34.3 °F /  1.3 °C 30.34in /  1027.3hPa ENE 4.9mph /  7.9km/h 5.0mph /  8km/h 23% 0.00in /  0mm 724.0 W/m2
12:48 74.5 °F /  23.6 °C 34.3 °F /  1.3 °C 30.34in /  1027.3hPa Calm   4.0mph /  6.4km/h 23% 0.00in /  0mm 717.0 W/m2
12:54 74.3 °F /  23.5 °C 34.2 °F /  1.2 °C 30.34in /  1027.3hPa NW 2.9mph /  4.7km/h 4.0mph /  6.4km/h 23% 0.00in /  0mm 708.0 W/m2
13:00 73.9 °F /  23.3 °C 33.8 °F /  1 °C 30.33in /  1027hPa NNW 2.0mph /  3.2km/h 6.0mph /  9.7km/h 23% 0.00in /  0mm 700.0 W/m2
13:06 73.8 °F /  23.2 °C 33.6 °F /  0.9 °C 30.33in /  1027hPa Calm   1.0mph /  1.6km/h 23% 0.00in /  0mm 691.0 W/m2
13:12 73.4 °F /  23 °C 35.4 °F /  1.9 °C 30.33in /  1027hPa SW 2.0mph /  3.2km/h 3.0mph /  4.8km/h 25% 0.00in /  0mm 680.0 W/m2
13:18 73.6 °F /  23.1 °C 34.5 °F /  1.4 °C 30.32in /  1026.6hPa Calm   4.0mph /  6.4km/h 24% 0.00in /  0mm 670.0 W/m2
13:24 74.1 °F /  23.4 °C 36.0 °F /  2.2 °C 30.32in /  1026.6hPa WNW 2.0mph /  3.2km/h 6.0mph /  9.7km/h 25% 0.00in /  0mm 661.0 W/m2
13:30 74.7 °F /  23.7 °C 35.4 °F /  1.9 °C 30.32in /  1026.6hPa ENE 2.9mph /  4.7km/h 4.0mph /  6.4km/h 24% 0.00in /  0mm 652.0 W/m2
13:36 74.7 °F /  23.7 °C 36.5 °F /  2.5 °C 30.32in /  1026.6hPa East 0.9mph /  1.4km/h 4.0mph /  6.4km/h 25% 0.00in /  0mm 640.0 W/m2
13:43 74.8 °F /  23.8 °C 35.6 °F /  2 °C 30.31in /  1026.3hPa East 2.0mph /  3.2km/h 7.0mph /  11.3km/h 24% 0.00in /  0mm 628.0 W/m2
13:49 74.8 °F /  23.8 °C 35.6 °F /  2 °C 30.31in /  1026.3hPa Calm   6.0mph /  9.7km/h 24% 0.00in /  0mm 615.0 W/m2
13:57 74.1 °F /  23.4 °C 36.0 °F /  2.2 °C 30.31in /  1026.3hPa East 2.0mph /  3.2km/h 5.0mph /  8km/h 25% 0.00in /  0mm 592.0 W/m2
14:03 73.8 °F /  23.2 °C 34.7 °F /  1.5 °C 30.31in /  1026.3hPa NW 6.0mph /  9.7km/h 9.0mph /  14.5km/h 24% 0.00in /  0mm 578.0 W/m2
14:09 73.9 °F /  23.3 °C 34.9 °F /  1.6 °C 30.31in /  1026.3hPa NW 2.0mph /  3.2km/h 8.0mph /  12.9km/h 24% 0.00in /  0mm 564.0 W/m2
14:15 73.9 °F /  23.3 °C 36.0 °F /  2.2 °C 30.31in /  1026.3hPa SSE 2.9mph /  4.7km/h 3.0mph /  4.8km/h 25% 0.00in /  0mm 550.0 W/m2
14:22 73.9 °F /  23.3 °C 36.0 °F /  2.2 °C 30.31in /  1026.3hPa North 2.0mph /  3.2km/h 6.0mph /  9.7km/h 25% 0.00in /  0mm 534.0 W/m2
14:27 74.1 °F /  23.4 °C 36.0 °F /  2.2 °C 30.31in /  1026.3hPa NNW 0.9mph /  1.4km/h 7.0mph /  11.3km/h 25% 0.00in /  0mm 513.0 W/m2
14:34 74.3 °F /  23.5 °C 36.1 °F /  2.3 °C 30.31in /  1026.3hPa NNW 2.0mph /  3.2km/h 3.0mph /  4.8km/h 25% 0.00in /  0mm 494.0 W/m2
14:40 74.7 °F /  23.7 °C 37.6 °F /  3.1 °C 30.31in /  1026.3hPa Calm   6.0mph /  9.7km/h 26% 0.00in /  0mm 478.0 W/m2
14:46 74.8 °F /  23.8 °C 36.7 °F /  2.6 °C 30.31in /  1026.3hPa NNW 2.9mph /  4.7km/h 3.0mph /  4.8km/h 25% 0.00in /  0mm 462.0 W/m2
14:52 74.8 °F /  23.8 °C 36.7 °F /  2.6 °C 30.31in /  1026.3hPa North 4.9mph /  7.9km/h 7.0mph /  11.3km/h 25% 0.00in /  0mm 445.0 W/m2
14:58 74.7 °F /  23.7 °C 37.6 °F /  3.1 °C 30.31in /  1026.3hPa Calm   4.0mph /  6.4km/h 26% 0.00in /  0mm 427.0 W/m2
15:04 74.8 °F /  23.8 °C 36.7 °F /  2.6 °C 30.31in /  1026.3hPa North 0.9mph /  1.4km/h 2.0mph /  3.2km/h 25% 0.00in /  0mm 408.0 W/m2
15:10 74.7 °F /  23.7 °C 36.5 °F /  2.5 °C 30.31in /  1026.3hPa Calm   3.0mph /  4.8km/h 25% 0.00in /  0mm 385.0 W/m2
15:16 74.1 °F /  23.4 °C 36.0 °F /  2.2 °C 30.31in /  1026.3hPa North 2.0mph /  3.2km/h 7.0mph /  11.3km/h 25% 0.00in /  0mm 364.0 W/m2
15:23 73.8 °F /  23.2 °C 36.7 °F /  2.6 °C 30.31in /  1026.3hPa Calm   4.0mph /  6.4km/h 26% 0.00in /  0mm 348.0 W/m2
15:29 73.4 °F /  23 °C 35.4 °F /  1.9 °C 30.31in /  1026.3hPa Calm   1.0mph /  1.6km/h 25% 0.00in /  0mm 325.0 W/m2
15:35 73.0 °F /  22.8 °C 36.1 °F /  2.3 °C 30.31in /  1026.3hPa SE 0.9mph /  1.4km/h 1.0mph /  1.6km/h 26% 0.00in /  0mm 40.0 W/m2
15:41 72.7 °F /  22.6 °C 35.8 °F /  2.1 °C 30.31in /  1026.3hPa Calm   1.0mph /  1.6km/h 26% 0.00in /  0mm 35.0 W/m2
15:47 72.3 °F /  22.4 °C 35.6 °F /  2 °C 30.31in /  1026.3hPa NNE 10.1mph /  16.3km/h 10.1mph /  16.3km/h 26% 0.00in /  0mm 33.0 W/m2
15:53 72.0 °F /  22.2 °C 36.1 °F /  2.3 °C 30.31in /  1026.3hPa NNE 2.0mph /  3.2km/h 6.0mph /  9.7km/h 27% 0.00in /  0mm 32.0 W/m2
15:59 71.8 °F /  22.1 °C 36.0 °F /  2.2 °C 30.32in /  1026.6hPa NNE 0.9mph /  1.4km/h 2.0mph /  3.2km/h 27% 0.00in /  0mm 28.0 W/m2
16:05 71.4 °F /  21.9 °C 35.8 °F /  2.1 °C 30.32in /  1026.6hPa NE 2.9mph /  4.7km/h 5.0mph /  8km/h 27% 0.00in /  0mm 25.0 W/m2
16:11 71.2 °F /  21.8 °C 35.6 °F /  2 °C 30.32in /  1026.6hPa North 4.0mph /  6.4km/h 6.0mph /  9.7km/h 27% 0.00in /  0mm 21.0 W/m2
16:18 70.9 °F /  21.6 °C 35.2 °F /  1.8 °C 30.32in /  1026.6hPa Calm   2.0mph /  3.2km/h 27% 0.00in /  0mm 21.0 W/m2
16:24 70.5 °F /  21.4 °C 35.8 °F /  2.1 °C 30.32in /  1026.6hPa Calm   4.0mph /  6.4km/h 28% 0.00in /  0mm 18.0 W/m2
16:30 70.2 °F /  21.2 °C 35.6 °F /  2 °C 30.32in /  1026.6hPa Calm   3.0mph /  4.8km/h 28% 0.00in /  0mm 18.0 W/m2
16:36 70.0 °F /  21.1 °C 36.3 °F /  2.4 °C 30.32in /  1026.6hPa Calm   1.0mph /  1.6km/h 29% 0.00in /  0mm 19.0 W/m2
16:42 69.8 °F /  21 °C 36.1 °F /  2.3 °C 30.33in /  1027hPa Calm   1.0mph /  1.6km/h 29% 0.00in /  0mm 14.0 W/m2
16:48 69.4 °F /  20.8 °C 35.8 °F /  2.1 °C 30.33in /  1027hPa Calm   3.0mph /  4.8km/h 29% 0.00in /  0mm 14.0 W/m2
16:54 69.1 °F /  20.6 °C 36.3 °F /  2.4 °C 30.33in /  1027hPa Calm   4.0mph /  6.4km/h 30% 0.00in /  0mm 12.0 W/m2
17:01 68.7 °F /  20.4 °C 36.0 °F /  2.2 °C 30.33in /  1027hPa Calm   1.0mph /  1.6km/h 30% 0.00in /  0mm 11.0 W/m2
17:07 68.4 °F /  20.2 °C 36.5 °F /  2.5 °C 30.33in /  1027hPa Calm   2.0mph /  3.2km/h 31% 0.00in /  0mm 7.0 W/m2
17:13 68.0 °F /  20 °C 36.3 °F /  2.4 °C 30.34in /  1027.3hPa Calm   1.0mph /  1.6km/h 31% 0.00in /  0mm 5.0 W/m2
17:19 67.5 °F /  19.7 °C 37.4 °F /  3 °C 30.34in /  1027.3hPa Calm     33% 0.00in /  0mm 0.0 W/m2
17:25 66.9 °F /  19.4 °C 36.1 °F /  2.3 °C 30.34in /  1027.3hPa Calm   2.0mph /  3.2km/h 32% 0.00in /  0mm 0.0 W/m2
17:31 66.6 °F /  19.2 °C 37.4 °F /  3 °C 30.34in /  1027.3hPa Calm     34% 0.00in /  0mm 0.0 W/m2
17:37 65.8 °F /  18.8 °C 37.4 °F /  3 °C 30.34in /  1027.3hPa Calm     35% 0.00in /  0mm 0.0 W/m2
17:43 65.1 °F /  18.4 °C 36.9 °F /  2.7 °C 30.34in /  1027.3hPa Calm     35% 0.00in /  0mm 0.0 W/m2
17:50 64.6 °F /  18.1 °C 37.0 °F /  2.8 °C 30.34in /  1027.3hPa Calm   1.0mph /  1.6km/h 36% 0.00in /  0mm 0.0 W/m2
17:56 63.9 °F /  17.7 °C 37.0 °F /  2.8 °C 30.35in /  1027.7hPa Calm   1.0mph /  1.6km/h 37% 0.00in /  0mm 0.0 W/m2
18:02 63.1 °F /  17.3 °C 37.0 °F /  2.8 °C 30.35in /  1027.7hPa Calm     38% 0.00in /  0mm 0.0 W/m2
18:08 62.4 °F /  16.9 °C 36.5 °F /  2.5 °C 30.35in /  1027.7hPa ENE 0.9mph /  1.4km/h 2.0mph /  3.2km/h 38% 0.00in /  0mm 0.0 W/m2
18:14 62.2 °F /  16.8 °C 37.0 °F /  2.8 °C 30.35in /  1027.7hPa Calm   3.0mph /  4.8km/h 39% 0.00in /  0mm 0.0 W/m2
18:20 61.9 °F /  16.6 °C 36.7 °F /  2.6 °C 30.35in /  1027.7hPa Calm   1.0mph /  1.6km/h 39% 0.00in /  0mm 0.0 W/m2
18:26 61.5 °F /  16.4 °C 36.3 °F /  2.4 °C 30.36in /  1028hPa Calm   1.0mph /  1.6km/h 39% 0.00in /  0mm 0.0 W/m2
18:33 61.3 °F /  16.3 °C 36.9 °F /  2.7 °C 30.36in /  1028hPa Calm   2.0mph /  3.2km/h 40% 0.00in /  0mm 0.0 W/m2
18:39 61.2 °F /  16.2 °C 36.7 °F /  2.6 °C 30.36in /  1028hPa ENE 0.9mph /  1.4km/h 2.0mph /  3.2km/h 40% 0.00in /  0mm 0.0 W/m2
18:45 61.0 °F /  16.1 °C 36.5 °F /  2.5 °C 30.36in /  1028hPa Calm   2.0mph /  3.2km/h 40% 0.00in /  0mm 0.0 W/m2
18:51 60.6 °F /  15.9 °C 36.9 °F /  2.7 °C 30.37in /  1028.3hPa Calm   1.0mph /  1.6km/h 41% 0.00in /  0mm 0.0 W/m2
18:57 60.3 °F /  15.7 °C 36.5 °F /  2.5 °C 30.37in /  1028.3hPa Calm   1.0mph /  1.6km/h 41% 0.00in /  0mm 0.0 W/m2
19:03 60.1 °F /  15.6 °C 36.3 °F /  2.4 °C 30.37in /  1028.3hPa Calm   1.0mph /  1.6km/h 41% 0.00in /  0mm 0.0 W/m2
19:09 59.7 °F /  15.4 °C 36.0 °F /  2.2 °C 30.37in /  1028.3hPa Calm   1.0mph /  1.6km/h 41% 0.00in /  0mm 0.0 W/m2
19:15 59.4 °F /  15.2 °C 36.3 °F /  2.4 °C 30.37in /  1028.3hPa Calm   1.0mph /  1.6km/h 42% 0.00in /  0mm 0.0 W/m2
19:22 59.2 °F /  15.1 °C 36.1 °F /  2.3 °C 30.37in /  1028.3hPa Calm   1.0mph /  1.6km/h 42% 0.00in /  0mm 0.0 W/m2
19:32 58.6 °F /  14.8 °C 36.1 °F /  2.3 °C 30.38in /  1028.7hPa Calm     43% 0.00in /  0mm 0.0 W/m2
19:38 58.3 °F /  14.6 °C 36.0 °F /  2.2 °C 30.38in /  1028.7hPa NE 0.9mph /  1.4km/h 2.0mph /  3.2km/h 43% 0.00in /  0mm 0.0 W/m2
19:45 57.9 °F /  14.4 °C 36.1 °F /  2.3 °C 30.38in /  1028.7hPa Calm   1.0mph /  1.6km/h 44% 0.00in /  0mm 0.0 W/m2
19:50 57.7 °F /  14.3 °C 36.0 °F /  2.2 °C 30.38in /  1028.7hPa Calm   1.0mph /  1.6km/h 44% 0.00in /  0mm 0.0 W/m2
19:55 57.6 °F /  14.2 °C 35.8 °F /  2.1 °C 30.38in /  1028.7hPa Calm     44% 0.00in /  0mm 0.0 W/m2
20:00 57.4 °F /  14.1 °C 36.1 °F /  2.3 °C 30.38in /  1028.7hPa Calm   1.0mph /  1.6km/h 45% 0.00in /  0mm 0.0 W/m2
20:07 57.0 °F /  13.9 °C 36.0 °F /  2.2 °C 30.39in /  1029hPa Calm   1.0mph /  1.6km/h 45% 0.00in /  0mm 0.0 W/m2
20:13 56.8 °F /  13.8 °C 35.8 °F /  2.1 °C 30.39in /  1029hPa Calm   1.0mph /  1.6km/h 45% 0.00in /  0mm 0.0 W/m2
20:19 56.5 °F /  13.6 °C 36.0 °F /  2.2 °C 30.39in /  1029hPa Calm     46% 0.00in /  0mm 0.0 W/m2
20:25 56.3 °F /  13.5 °C 35.8 °F /  2.1 °C 30.39in /  1029hPa Calm     46% 0.00in /  0mm 0.0 W/m2
20:31 55.9 °F /  13.3 °C 35.4 °F /  1.9 °C 30.39in /  1029hPa Calm   1.0mph /  1.6km/h 46% 0.00in /  0mm 0.0 W/m2
20:37 55.8 °F /  13.2 °C 35.8 °F /  2.1 °C 30.39in /  1029hPa Calm   1.0mph /  1.6km/h 47% 0.00in /  0mm 0.0 W/m2
20:43 55.6 °F /  13.1 °C 35.6 °F /  2 °C 30.39in /  1029hPa Calm   2.0mph /  3.2km/h 47% 0.00in /  0mm 0.0 W/m2
20:49 55.2 °F /  12.9 °C 36.0 °F /  2.2 °C 30.39in /  1029hPa SE 0.9mph /  1.4km/h 1.0mph /  1.6km/h 48% 0.00in /  0mm 0.0 W/m2
20:55 54.9 °F /  12.7 °C 35.6 °F /  2 °C 30.39in /  1029hPa Calm   1.0mph /  1.6km/h 48% 0.00in /  0mm 0.0 W/m2
21:02 54.7 °F /  12.6 °C 36.0 °F /  2.2 °C 30.39in /  1029hPa Calm   2.0mph /  3.2km/h 49% 0.00in /  0mm 0.0 W/m2
21:08 54.3 °F /  12.4 °C 35.6 °F /  2 °C 30.39in /  1029hPa Calm   2.0mph /  3.2km/h 49% 0.00in /  0mm 0.0 W/m2
21:14 54.1 °F /  12.3 °C 36.0 °F /  2.2 °C 30.39in /  1029hPa Calm     50% 0.00in /  0mm 0.0 W/m2
21:20 53.8 °F /  12.1 °C 35.6 °F /  2 °C 30.39in /  1029hPa Calm   1.0mph /  1.6km/h 50% 0.00in /  0mm 0.0 W/m2
21:26 53.4 °F /  11.9 °C 35.2 °F /  1.8 °C 30.39in /  1029hPa Calm     50% 0.00in /  0mm 0.0 W/m2
21:32 53.4 °F /  11.9 °C 35.8 °F /  2.1 °C 30.40in /  1029.3hPa ESE 0.9mph /  1.4km/h 2.0mph /  3.2km/h 51% 0.00in /  0mm 0.0 W/m2
21:38 53.2 °F /  11.8 °C 35.6 °F /  2 °C 30.40in /  1029.3hPa Calm   2.0mph /  3.2km/h 51% 0.00in /  0mm 0.0 W/m2
21:45 53.1 °F /  11.7 °C 35.4 °F /  1.9 °C 30.40in /  1029.3hPa Calm   1.0mph /  1.6km/h 51% 0.00in /  0mm 0.0 W/m2
21:51 52.9 °F /  11.6 °C 35.8 °F /  2.1 °C 30.40in /  1029.3hPa Calm     52% 0.00in /  0mm 0.0 W/m2
21:57 52.7 °F /  11.5 °C 35.6 °F /  2 °C 30.40in /  1029.3hPa Calm     52% 0.00in /  0mm 0.0 W/m2
22:03 52.5 °F /  11.4 °C 36.0 °F /  2.2 °C 30.40in /  1029.3hPa Calm   1.0mph /  1.6km/h 53% 0.00in /  0mm 0.0 W/m2
22:09 52.3 °F /  11.3 °C 35.8 °F /  2.1 °C 30.40in /  1029.3hPa Calm     53% 0.00in /  0mm 0.0 W/m2
22:15 52.3 °F /  11.3 °C 35.8 °F /  2.1 °C 30.40in /  1029.3hPa Calm   2.0mph /  3.2km/h 53% 0.00in /  0mm 0.0 W/m2
22:21 52.2 °F /  11.2 °C 35.6 °F /  2 °C 30.40in /  1029.3hPa Calm   2.0mph /  3.2km/h 53% 0.00in /  0mm 0.0 W/m2
22:28 52.0 °F /  11.1 °C 35.8 °F /  2.1 °C 30.40in /  1029.3hPa Calm     54% 0.00in /  0mm 0.0 W/m2
22:34 52.0 °F /  11.1 °C 35.8 °F /  2.1 °C 30.40in /  1029.3hPa Calm   2.0mph /  3.2km/h 54% 0.00in /  0mm 0.0 W/m2
22:40 52.0 °F /  11.1 °C 35.8 °F /  2.1 °C 30.40in /  1029.3hPa Calm   1.0mph /  1.6km/h 54% 0.00in /  0mm 0.0 W/m2
22:46 51.8 °F /  11 °C 35.6 °F /  2 °C 30.40in /  1029.3hPa East 0.9mph /  1.4km/h 2.0mph /  3.2km/h 54% 0.00in /  0mm 0.0 W/m2
22:52 51.8 °F /  11 °C 35.6 °F /  2 °C 30.40in /  1029.3hPa Calm   1.0mph /  1.6km/h 54% 0.00in /  0mm 0.0 W/m2
22:58 51.6 °F /  10.9 °C 35.6 °F /  2 °C 30.40in /  1029.3hPa Calm   2.0mph /  3.2km/h 54% 0.00in /  0mm 0.0 W/m2
23:04 51.6 °F /  10.9 °C 35.6 °F /  2 °C 30.40in /  1029.3hPa East 0.9mph /  1.4km/h 2.0mph /  3.2km/h 54% 0.00in /  0mm 0.0 W/m2
23:10 51.6 °F /  10.9 °C 36.0 °F /  2.2 °C 30.40in /  1029.3hPa Calm   1.0mph /  1.6km/h 55% 0.00in /  0mm 0.0 W/m2
23:16 51.6 °F /  10.9 °C 36.0 °F /  2.2 °C 30.40in /  1029.3hPa Calm   3.0mph /  4.8km/h 55% 0.00in /  0mm 0.0 W/m2
23:22 51.6 °F /  10.9 °C 36.0 °F /  2.2 °C 30.41in /  1029.7hPa Calm   1.0mph /  1.6km/h 55% 0.00in /  0mm 0.0 W/m2
23:28 51.6 °F /  10.9 °C 36.0 °F /  2.2 °C 30.40in /  1029.3hPa Calm   2.0mph /  3.2km/h 55% 0.00in /  0mm 0.0 W/m2
23:34 51.4 °F /  10.8 °C 36.3 °F /  2.4 °C 30.40in /  1029.3hPa Calm   3.0mph /  4.8km/h 56% 0.00in /  0mm 0.0 W/m2
23:40 51.3 °F /  10.7 °C 35.6 °F /  2 °C 30.40in /  1029.3hPa Calm     55% 0.00in /  0mm 0.0 W/m2
23:46 51.1 °F /  10.6 °C 36.0 °F /  2.2 °C 30.40in /  1029.3hPa Calm   1.0mph /  1.6km/h 56% 0.00in /  0mm 0.0 W/m2
23:52 51.1 °F /  10.6 °C 36.0 °F /  2.2 °C 30.40in /  1029.3hPa Calm   1.0mph /  1.6km/h 56% 0.00in /  0mm 0.0 W/m2
23:58 51.1 °F /  10.6 °C 36.0 °F /  2.2 °C 30.40in /  1029.3hPa Calm     56% 0.00in /  0mm 0.0 W/m2
Olympia, Windhoek, Namibia
Compliments of Weather Underground - 3 mb